createdAt,value
2022-12-06T00:00:12.146Z,82.53
2022-12-06T00:05:08.879Z,83.02
2022-12-06T00:10:08.890Z,83.54
2022-12-06T00:15:08.868Z,83.44
2022-12-06T00:20:08.729Z,82.67
2022-12-06T00:25:08.640Z,83.75
2022-12-06T00:30:08.884Z,84.06
2022-12-06T00:35:08.468Z,84.06
2022-12-06T00:40:08.536Z,83.85
2022-12-06T00:45:08.528Z,84.51
2022-12-06T00:50:08.457Z,82.19
2022-12-06T00:55:08.276Z,83.16
2022-12-06T01:05:53.514Z,84.41
2022-12-06T01:10:53.223Z,83.61
2022-12-06T01:15:53.244Z,82.74
2022-12-06T01:20:52.979Z,83.29
2022-12-06T01:41:10.810Z,83.05
2022-12-06T01:46:10.748Z,83.05
2022-12-06T01:51:10.496Z,82.22
2022-12-06T01:56:10.439Z,83.81
2022-12-06T02:01:10.413Z,83.64
2022-12-06T02:06:10.270Z,85.24
2022-12-06T02:11:10.355Z,86.00
2022-12-06T02:16:10.346Z,84.53
2022-12-06T02:21:10.161Z,83.05
2022-12-06T02:26:10.169Z,82.18
2022-12-06T02:31:13.232Z,82.78
2022-12-06T02:36:10.053Z,84.58
2022-12-06T02:41:09.900Z,83.29
2022-12-06T02:46:10.026Z,84.16
2022-12-06T02:58:51.701Z,81.95
2022-12-06T03:03:51.335Z,83.23
2022-12-06T03:08:51.510Z,84.64
2022-12-06T03:26:47.319Z,83.05
2022-12-06T03:31:47.295Z,83.54
2022-12-06T03:36:47.221Z,84.88
2022-12-06T03:41:47.239Z,84.29
2022-12-06T03:46:47.146Z,84.47
2022-12-06T03:56:57.044Z,82.57
2022-12-06T04:01:56.672Z,83.56
2022-12-06T04:06:56.807Z,83.11
2022-12-06T04:11:56.503Z,82.29
2022-12-06T04:16:56.571Z,83.05
2022-12-06T04:21:56.472Z,83.32
2022-12-06T04:26:56.676Z,84.64
2022-12-06T04:31:56.344Z,83.01
2022-12-06T04:36:56.213Z,83.01
2022-12-06T04:41:56.162Z,82.60
2022-12-06T04:46:59.197Z,83.63
2022-12-06T04:51:56.156Z,84.99
2022-12-06T05:13:17.940Z,84.84
2022-12-06T05:18:17.585Z,83.42
2022-12-06T05:23:17.680Z,85.50
2022-12-06T07:03:53.021Z,82.60
2022-12-06T07:14:49.015Z,82.46
2022-12-06T07:52:03.856Z,82.53
2022-12-06T07:57:03.757Z,81.56
2022-12-06T08:06:13.713Z,81.52
2022-12-06T08:24:12.719Z,80.77
2022-12-06T08:29:20.547Z,79.63
2022-12-06T08:44:23.425Z,80.08
2022-12-06T08:49:23.237Z,80.18
2022-12-06T09:49:14.753Z,79.83
2022-12-06T09:54:13.895Z,77.87
2022-12-06T09:59:15.186Z,78.59
2022-12-06T10:04:14.080Z,78.66
2022-12-06T10:09:13.843Z,79.39
2022-12-06T10:14:13.945Z,79.18
2022-12-06T11:23:24.567Z,80.84
2022-12-06T11:28:24.173Z,81.46
2022-12-06T11:33:24.298Z,80.15
2022-12-06T11:38:24.105Z,79.46
2022-12-06T11:47:32.421Z,79.11
2022-12-06T11:52:32.016Z,79.59
2022-12-06T11:57:33.551Z,80.25
2022-12-06T12:08:00.838Z,79.69
2022-12-06T12:16:07.433Z,79.87
2022-12-06T12:21:06.896Z,79.49
2022-12-06T12:30:09.051Z,81.42
2022-12-06T12:35:08.750Z,78.74
2022-12-06T12:40:10.808Z,78.97
2022-12-06T12:45:08.480Z,78.39
2022-12-06T12:50:08.530Z,78.97
2022-12-06T14:12:35.476Z,80.11
2022-12-06T14:18:00.832Z,80.08
2022-12-06T14:47:08.211Z,81.54
2022-12-06T14:52:08.021Z,82.98
2022-12-06T15:04:56.359Z,81.09
2022-12-06T15:33:17.330Z,80.60
2022-12-06T15:38:17.294Z,80.80
2022-12-06T16:50:27.763Z,81.91
2022-12-06T17:21:20.486Z,81.39
2022-12-06T17:26:19.765Z,81.15
2022-12-06T17:31:19.576Z,81.01
2022-12-06T19:45:36.836Z,79.63
2022-12-06T19:50:34.733Z,79.25
2022-12-06T22:29:43.765Z,78.98
2022-12-06T22:34:44.035Z,79.43
2022-12-06T22:39:43.583Z,78.88
2022-12-06T22:44:43.609Z,78.29
2022-12-06T22:49:43.552Z,79.77
2022-12-06T22:54:43.451Z,78.77
2022-12-06T22:59:43.396Z,79.26
2022-12-06T23:04:43.247Z,79.30
2022-12-06T23:09:43.358Z,79.71
2022-12-06T23:14:43.107Z,78.99
2022-12-06T23:19:46.194Z,77.91
2022-12-06T23:24:43.100Z,79.44
2022-12-06T23:29:42.960Z,78.61
2022-12-06T23:34:42.867Z,78.02
2022-12-06T23:39:43.448Z,77.47
2022-12-06T23:44:42.711Z,78.78
2022-12-06T23:49:42.890Z,79.65
2022-12-06T23:54:42.648Z,79.85
2022-12-06T23:59:42.451Z,79.55
